Thursday, February 22, 2018, 8:45 PM CST
Back to Local

KVPZ, Valparaiso Porter Co Muni

Location: Valparaiso, IN, United States Lat: 41.45
Local Time: 8:45 PM CST ( 2:45 GMT) Lon: -87
Time Zone: US/Central Elev: 770 ft

Show me the last for .
Show Decoded

2018-02-22 19:56 METAR KVPZ 230156Z AUTO 10010KT 8SM OVC013 04/02 A3039 RMK AO2 SLP298 T00440017
                 =
2018-02-22 19:31 METAR KVPZ 230131Z AUTO 10010KT 9SM OVC014 05/02 A3041 RMK AO2 T00500017 =
2018-02-22 18:56 METAR KVPZ 230056Z AUTO 09011KT 10SM OVC016 05/02 A3042 RMK AO2 SLP308 T00500017
                 =
2018-02-22 17:56 METAR KVPZ 222356Z AUTO 09013KT 10SM BKN020 OVC035 06/02 A3041 RMK AO2 SLP303
                 T00560017 10072 20056 55004 =
2018-02-22 16:56 METAR KVPZ 222256Z AUTO 10016G23KT 10SM OVC037 06/02 A3037 RMK AO2 SLP291
                 T00610017 =
2018-02-22 16:24 METAR KVPZ 222224Z AUTO 10014G20KT 10SM SCT021 OVC043 07/02 A3040 RMK AO2
                 T00670022 =
2018-02-22 15:56 METAR KVPZ 222156Z AUTO 08012KT 10SM BKN021 OVC032 07/02 A3041 RMK AO2 SLP305
                 T00670022 =
2018-02-22 14:56 METAR KVPZ 222056Z AUTO 09015KT 10SM BKN020 OVC030 07/02 A3042 RMK AO2 SLP306
                 T00670017 58023 =
2018-02-22 14:17 METAR KVPZ 222017Z AUTO 08015KT 10SM BKN019 OVC031 07/02 A3044 RMK AO2 T00670017
                 =
2018-02-22 13:56 METAR KVPZ 221956Z AUTO 10016KT 10SM FEW019 BKN031 OVC040 07/02 A3044 RMK AO2
                 SLP313 T00670017 =
2018-02-22 13:35 METAR KVPZ 221935Z AUTO 08015KT 10SM SCT020 OVC040 07/02 A3044 RMK AO2 T00670022
                 =
2018-02-22 13:10 METAR KVPZ 221910Z AUTO 09014KT 10SM BKN021 OVC040 06/01 A3046 RMK AO2 T00610011
                 =
2018-02-22 12:56 METAR KVPZ 221856Z AUTO 09013KT 10SM FEW020 OVC038 06/01 A3048 RMK AO2 SLP327
                 T00610011 =
2018-02-22 12:14 METAR KVPZ 221814Z AUTO 08014KT 10SM SCT021 OVC035 06/01 A3049 RMK AO2 T00560011
                 =
2018-02-22 11:56 METAR KVPZ 221756Z AUTO 08015KT 10SM BKN021 BKN032 OVC050 06/01 A3049 RMK AO2
                 SLP331 60000 T00560011 10061 20006 58016 =
2018-02-22 10:56 METAR KVPZ 221656Z AUTO 09015KT 10SM SCT038 SCT050 05/01 A3050 RMK AO2 RAB35E47
                 SLP336 P0000 T00500006 =
2018-02-22 09:56 METAR KVPZ 221556Z AUTO 09013KT 9SM OVC055 03/M01 A3055 RMK AO2 RAE00 SLP352
                 P0000 T00331006 =
2018-02-22 08:56 METAR KVPZ 221456Z AUTO 07009KT 6SM -RA BR BKN060 OVC080 02/M01 A3054 RMK AO2
                 UPB41E43RAB43 SLP349 P0000 60000 T00171006 51013 =
2018-02-22 07:56 METAR KVPZ 221356Z AUTO 04006KT 8SM BKN065 OVC080 01/M01 A3053 RMK AO2 SLP348
                 T00111011 =
2018-02-22 06:56 METAR KVPZ 221256Z AUTO 03006KT 9SM OVC110 01/M01 A3052 RMK AO2 SLP346 T00111011
                 $ =
2018-02-22 05:56 METAR KVPZ 221156Z AUTO 04007KT 9SM BKN080 OVC110 01/M02 A3050 RMK AO2 SLP337
                 T00061017 10006 21006 57002 $ =
2018-02-22 04:56 METAR KVPZ 221056Z AUTO 05008KT 10SM SCT012 OVC070 01/M02 A3049 RMK AO2 SLP336
                 T00061017 $ =
2018-02-22 04:44 METAR KVPZ 221044Z AUTO 04007KT 10SM SCT012 OVC070 01/M02 A3050 RMK AO2
                 T00061022 $ =
2018-02-22 03:56 METAR KVPZ 220956Z AUTO 02008KT 10SM OVC013 01/M02 A3051 RMK AO2 SLP340
                 T00061022 $ =
2018-02-22 02:56 METAR KVPZ 220856Z AUTO 03009KT 10SM OVC014 01/M02 A3050 RMK AO2 SLP338
                 T00061022 58016 $ =
2018-02-22 02:40 METAR KVPZ 220840Z AUTO 03009KT 10SM BKN014 OVC070 01/M02 A3052 RMK AO2
                 T00061022 $ =
2018-02-22 02:25 METAR KVPZ 220825Z AUTO 04009KT 10SM BKN015 OVC070 00/M02 A3052 RMK AO2
                 T00001022 $ =
2018-02-22 01:56 METAR KVPZ 220756Z AUTO 04008KT 10SM FEW016 OVC070 00/M03 A3053 RMK AO2 SLP347
                 T00001028 $ =
2018-02-22 00:56 METAR KVPZ 220656Z AUTO 04008KT 10SM BKN070 00/M03 A3054 RMK AO2 SLP350
                 T00001028 $ =
2018-02-21 23:56 METAR KVPZ 220556Z AUTO 03008KT 10SM CLR M01/M03 A3055 RMK AO2 SLP356 T10061028
                 11006 21011 400281011 58019 $ =
2018-02-21 22:56 METAR KVPZ 220456Z AUTO 03007KT 10SM CLR M01/M03 A3058 RMK AO2 SLP366 T10061033
                 $ =
2018-02-21 21:56 METAR KVPZ 220356Z AUTO 03007KT 10SM CLR M01/M03 A3060 RMK AO2 SLP373 T10061033
                 $ =
2018-02-21 20:56 METAR KVPZ 220256Z AUTO 02008KT 10SM CLR M01/M03 A3061 RMK AO2 SLP376 T10061033
                 50004 $ =

Support USWX by starting your Amazon purchase here.